This is the latest recevied weather packets stored in our database for station/object W0BJ. If no packets are shown the sender has not sent any weather packets the latest 10 day(s).
| Time | Temp. | Humidity | Pressure | Rain* | Wind** | Luminosity | Snow |
|---|---|---|---|---|---|---|---|
| 1777926143 | 26.11° C | 49% | 1005.8 hPa | 0 mm | - | - | - |
| 1777925545 | 26.11° C | 49% | 1005.8 hPa | 0 mm | - | - | - |
| 1777925298 | 26.11° C | 51% | 1006 hPa | 0 mm | - | - | - |
| 1777924944 | 25.56° C | 54% | 1006 hPa | 0 mm | - | - | - |
| 1777924399 | 25° C | 53% | 1006.2 hPa | 0 mm | - | - | - |
| 1777924345 | 24.44° C | 54% | 1006.2 hPa | 0 mm | - | - | - |
| 1777923744 | 24.44° C | 54% | 1006.2 hPa | 0 mm | - | - | - |
| 1777923498 | 23.89° C | 56% | 1006.4 hPa | 0 mm | - | - | - |
| 1777923144 | 23.33° C | 56% | 1006.5 hPa | 0 mm | - | - | - |
| 1777922597 | 23.33° C | 55% | 1006.6 hPa | 0 mm | - | - | - |
| 1777922543 | 23.33° C | 56% | 1006.6 hPa | 0 mm | - | - | - |
| 1777921945 | 21.67° C | 60% | 1006.2 hPa | 0 mm | - | - | - |
| 1777921699 | 21.11° C | 61% | 1006.1 hPa | 0 mm | - | - | - |
| 1777921344 | 20° C | 63% | 1005.9 hPa | 0 mm | - | - | - |
| 1777920798 | 19.44° C | 62% | 1005.7 hPa | 0 mm | - | - | - |
| 1777920744 | 19.44° C | 62% | 1005.9 hPa | 0 mm | - | - | - |
| 1777920143 | 20° C | 60% | 1007.4 hPa | 0 mm | - | - | - |
| 1777919899 | 20° C | 59% | 1007.6 hPa | 0 mm | - | - | - |
| 1777919545 | 20.56° C | 57% | 1007.3 hPa | 0 mm | - | - | - |
| 1777918999 | 21.11° C | 57% | 1007.7 hPa | 0 mm | - | - | - |
| 1777918945 | 21.11° C | 57% | 1007.7 hPa | 0 mm | - | - | - |
| 1777918344 | 21.11° C | 57% | 1007.5 hPa | 0 mm | - | - | - |
| 1777918098 | 21.11° C | 57% | 1007.4 hPa | 0 mm | - | - | - |
| 1777917744 | 21.11° C | 57% | 1007.3 hPa | 0 mm | - | - | - |
| 1777917198 | 20.56° C | 58% | 1007.6 hPa | 0 mm | - | - | - |
* Rain latest hour (hover to see other rain measurements)
** Current wind speed in m/s (hover to see current wind gust speed)